Time;durP1;ratioP1;P1;durP2;ratioP2;P2;SDS_P1;SDS_P2;PMS_P1;PMS_P2;Temp;Humidity;BMP_temperature;BMP_pressure;BME280_temperature;BME280_humidity;BME280_pressure;Samples;Min_cycle;Max_cycle;Signal;HPM_P1;HPM_P2
2024/03/14 00:02:55;;;;;;;85.80;44.90;;;;;;;4.19;100.00;99122.80;270218;1273;22627;-93
2024/03/14 00:09:00;;;;;;;85.00;45.90;;;;;;;4.04;100.00;99125.80;272389;1273;23390;-92
2024/03/14 00:15:11;;;;;;;96.90;49.50;;;;;;;3.87;100.00;99123.17;272253;1272;22434;-92
2024/03/14 00:21:17;;;;;;;85.00;43.70;;;;;;;3.67;100.00;99122.32;272175;1273;22238;-92
2024/03/14 00:27:23;;;;;;;93.50;48.20;;;;;;;3.55;100.00;99121.98;272344;1273;22347;-91
2024/03/14 00:33:55;;;;;;;99.20;49.70;;;;;;;3.47;100.00;99115.54;272176;1273;23589;-93
2024/03/14 00:40:08;;;;;;;69.80;37.70;;;;;;;3.33;100.00;99115.76;272384;1273;22226;-92
2024/03/14 00:46:15;;;;;;;88.60;43.90;;;;;;;3.20;100.00;99111.41;272115;1273;22438;-92
2024/03/14 00:52:21;;;;;;;78.30;40.90;;;;;;;3.03;100.00;99114.88;272195;1273;22432;-93
2024/03/14 00:58:27;;;;;;;89.90;46.80;;;;;;;2.91;100.00;99111.60;271301;1275;22513;-92
2024/03/14 01:04:41;;;;;;;88.00;45.00;;;;;;;2.79;100.00;99110.16;272159;1273;22930;-93
2024/03/14 01:11:00;;;;;;;87.50;40.70;;;;;;;2.71;100.00;99106.77;272292;1273;22437;-93
2024/03/14 01:17:23;;;;;;;81.40;42.10;;;;;;;2.66;100.00;99103.02;271293;1273;23110;-91
2024/03/14 01:23:58;;;;;;;81.60;42.50;;;;;;;2.57;100.00;99096.29;269882;1273;22556;-92
2024/03/14 01:30:21;;;;;;;79.10;37.20;;;;;;;2.58;100.00;99091.94;269662;1272;22539;-92
2024/03/14 01:37:13;;;;;;;141.20;42.50;;;;;;;2.63;100.00;99090.88;269253;1273;22562;-92
2024/03/14 02:01:04;;;;;;;127.80;44.60;;;;;;;2.74;100.00;99085.94;261104;1294;5196024;-92
2024/03/14 02:07:49;;;;;;;122.30;46.00;;;;;;;2.68;100.00;99076.85;268811;1279;22509;-91
2024/03/14 02:14:33;;;;;;;96.20;42.70;;;;;;;2.64;100.00;99076.98;270100;1272;24347;-92
2024/03/14 02:21:15;;;;;;;90.00;41.30;;;;;;;2.67;100.00;99075.27;270160;1272;22506;-92
2024/03/14 02:27:45;;;;;;;100.90;46.30;;;;;;;2.67;100.00;99071.09;270044;1271;23404;-91
2024/03/14 02:34:38;;;;;;;95.20;42.50;;;;;;;2.71;100.00;99077.64;270808;1257;22566;-91
2024/03/14 02:56:32;;;;;;;95.50;36.30;;;;;;;2.85;100.00;99075.08;270455;1266;22203;-86
2024/03/14 03:03:16;;;;;;;100.00;38.20;;;;;;;2.86;100.00;99067.59;272671;1271;22985;-87
2024/03/14 03:09:58;;;;;;;106.30;36.60;;;;;;;2.86;100.00;99065.95;271094;1275;23085;-87
2024/03/14 03:16:44;;;;;;;79.40;34.30;;;;;;;2.84;100.00;99068.96;272069;1275;22274;-86
2024/03/14 03:23:39;;;;;;;75.60;36.40;;;;;;;2.84;100.00;99070.84;272826;1275;22261;-87
2024/03/14 03:30:06;;;;;;;98.80;37.60;;;;;;;2.87;100.00;99080.84;272738;1263;22787;-87
2024/03/14 03:37:01;;;;;;;106.50;39.40;;;;;;;2.86;100.00;99089.27;272381;1275;22491;-87
2024/03/14 03:43:09;;;;;;;115.60;46.90;;;;;;;2.88;100.00;99085.33;272604;1279;22172;-87
2024/03/14 03:49:58;;;;;;;126.50;44.10;;;;;;;2.90;100.00;99081.30;272687;1275;22221;-87
2024/03/14 03:56:25;;;;;;;104.50;42.40;;;;;;;2.87;100.00;99077.80;272516;1278;22185;-87
2024/03/14 04:03:14;;;;;;;86.60;41.70;;;;;;;2.85;100.00;99075.73;270349;1276;22259;-87
2024/03/14 04:09:16;;;;;;;115.30;41.60;;;;;;;2.88;100.00;99078.50;271593;1275;22601;-87
2024/03/14 04:15:18;;;;;;;88.00;34.70;;;;;;;2.90;100.00;99078.16;271424;1275;22242;-87
2024/03/14 04:22:11;;;;;;;74.30;33.90;;;;;;;2.87;100.00;99090.32;271704;1275;25336;-88
2024/03/14 04:28:13;;;;;;;102.10;31.80;;;;;;;2.79;100.00;99092.05;269442;1275;22595;-87
2024/03/14 04:34:15;;;;;;;84.90;31.00;;;;;;;2.68;100.00;99092.98;268530;1276;22214;-87
2024/03/14 04:40:38;;;;;;;109.30;31.60;;;;;;;2.66;100.00;99093.27;271084;1279;22249;-87
2024/03/14 04:46:46;;;;;;;105.40;35.00;;;;;;;2.56;100.00;99099.95;271196;1279;22301;-87
2024/03/14 04:53:31;;;;;;;84.30;31.50;;;;;;;2.50;100.00;99101.29;271638;1281;22379;-86
2024/03/14 05:06:21;;;;;;;51.70;27.50;;;;;;;2.54;100.00;99105.01;272407;1275;22623;-86
2024/03/14 05:13:04;;;;;;;67.50;28.50;;;;;;;2.54;100.00;99100.48;272097;1275;23713;-86
2024/03/14 05:19:47;;;;;;;57.70;28.60;;;;;;;2.60;100.00;99101.75;271317;1275;23001;-87
2024/03/14 05:25:49;;;;;;;58.50;28.00;;;;;;;2.66;100.00;99107.30;271949;1275;22424;-87
2024/03/14 05:32:36;;;;;;;61.60;28.60;;;;;;;2.69;100.00;99107.23;270454;1280;22271;-87
2024/03/14 05:39:04;;;;;;;61.20;30.50;;;;;;;2.73;100.00;99106.86;271655;1281;22986;-86
2024/03/14 05:45:56;;;;;;;69.40;33.10;;;;;;;2.80;100.00;99112.40;271068;1281;22445;-86
2024/03/14 05:51:59;;;;;;;65.90;32.40;;;;;;;2.87;100.00;99118.21;272826;1276;22215;-86
2024/03/14 05:58:21;;;;;;;60.40;31.90;;;;;;;2.93;100.00;99125.89;272562;1278;22940;-86
2024/03/14 06:04:46;;;;;;;59.60;30.60;;;;;;;2.97;100.00;99132.63;272655;1282;23074;-86
2024/03/14 06:11:54;;;;;;;61.50;32.20;;;;;;;3.01;100.00;99138.52;271218;1275;22405;-86
2024/03/14 06:17:58;;;;;;;59.00;30.70;;;;;;;3.09;100.00;99148.20;272613;1275;22933;-86
2024/03/14 06:24:45;;;;;;;56.00;30.70;;;;;;;3.17;100.00;99146.23;272559;1281;23017;-86
2024/03/14 06:31:15;;;;;;;55.00;28.70;;;;;;;3.26;100.00;99143.06;272200;1275;22285;-87
2024/03/14 06:37:18;;;;;;;61.30;31.40;;;;;;;3.35;100.00;99150.14;270820;1275;23387;-87
2024/03/14 06:43:51;;;;;;;61.90;31.90;;;;;;;3.43;100.00;99157.42;269229;1275;22638;-86
2024/03/14 06:51:02;;;;;;;58.10;30.30;;;;;;;3.49;100.00;99161.39;271582;1275;22425;-86
2024/03/14 06:57:57;;;;;;;59.20;30.90;;;;;;;3.60;100.00;99162.27;271809;1275;22421;-86
2024/03/14 07:04:51;;;;;;;53.00;29.20;;;;;;;3.77;100.00;99171.02;272144;1265;23522;-86
2024/03/14 07:11:40;;;;;;;54.40;29.00;;;;;;;3.93;100.00;99175.58;272113;1275;22231;-86
2024/03/14 07:17:58;;;;;;;58.60;30.50;;;;;;;3.99;100.00;99178.39;268915;1275;23376;-86
2024/03/14 07:25:13;;;;;;;59.00;31.90;;;;;;;4.13;100.00;99179.23;271906;1278;22316;-86
2024/03/14 07:31:43;;;;;;;58.70;31.20;;;;;;;4.30;100.00;99177.82;270737;1278;23083;-86
2024/03/14 07:37:47;;;;;;;66.80;38.40;;;;;;;4.36;100.00;99178.98;271908;1282;25320;-86
2024/03/14 07:44:36;;;;;;;67.90;36.50;;;;;;;4.48;100.00;99182.23;272180;1279;23193;-86
2024/03/14 07:50:41;;;;;;;70.80;37.20;;;;;;;4.66;100.00;99184.08;272512;1276;22252;-86
2024/03/14 07:57:09;;;;;;;77.30;38.90;;;;;;;4.78;100.00;99188.23;272264;1282;22346;-86
2024/03/14 08:04:34;;;;;;;83.70;41.20;;;;;;;4.92;100.00;99193.30;271334;1281;22203;-86
2024/03/14 08:11:41;;;;;;;77.20;38.90;;;;;;;5.06;100.00;99189.80;271246;1281;22717;-87
2024/03/14 08:18:38;;;;;;;75.30;39.80;;;;;;;5.24;100.00;99189.11;271621;1281;22481;-87
2024/03/14 08:25:19;;;;;;;71.90;39.40;;;;;;;5.44;100.00;99188.04;271202;1278;22523;-87
2024/03/14 08:31:24;;;;;;;74.50;41.20;;;;;;;5.69;100.00;99189.66;271772;1280;22698;-87
2024/03/14 08:37:46;;;;;;;74.90;41.50;;;;;;;5.89;100.00;99193.23;271963;1280;23654;-87
2024/03/14 08:44:13;;;;;;;71.10;41.30;;;;;;;6.08;100.00;99197.24;271903;1275;22366;-87
2024/03/14 08:50:55;;;;;;;68.60;38.70;;;;;;;6.28;100.00;99194.70;272171;1266;22381;-87
2024/03/14 08:56:58;;;;;;;71.10;40.10;;;;;;;6.57;100.00;99191.29;270170;1275;25233;-87
2024/03/14 09:03:22;;;;;;;77.60;41.20;;;;;;;6.88;100.00;99190.42;269362;1275;22549;-87
2024/03/14 09:09:50;;;;;;;72.30;42.00;;;;;;;7.21;100.00;99189.63;269026;1275;22565;-86
2024/03/14 09:16:04;;;;;;;68.30;40.00;;;;;;;7.51;100.00;99183.77;269680;1275;22342;-87
2024/03/14 09:22:25;;;;;;;68.00;39.30;;;;;;;7.83;100.00;99180.15;271547;1272;22527;-87
2024/03/14 09:29:02;;;;;;;73.40;41.70;;;;;;;8.13;100.00;99179.95;272042;1275;22302;-87
2024/03/14 09:35:29;;;;;;;61.30;36.00;;;;;;;8.36;100.00;99173.40;272307;1276;22199;-87
2024/03/14 09:41:47;;;;;;;57.30;33.90;;;;;;;8.58;100.00;99171.33;272932;1275;22187;-87
2024/03/14 09:47:49;;;;;;;61.70;35.70;;;;;;;8.55;100.00;99174.91;271752;1264;23519;-87
2024/03/14 09:54:42;;;;;;;61.20;36.40;;;;;;;8.65;100.00;99167.59;272420;1273;23046;-87
2024/03/14 10:01:03;;;;;;;53.20;32.60;;;;;;;8.83;100.00;99166.17;272531;1274;22683;-87
2024/03/14 10:08:11;;;;;;;56.40;33.80;;;;;;;9.04;100.00;99164.48;271277;1273;22446;-88
2024/03/14 10:14:27;;;;;;;52.90;31.60;;;;;;;9.21;100.00;99169.35;272983;1272;22917;-87
2024/03/14 10:20:55;;;;;;;;;;;;;;;9.30;100.00;99169.22;271715;1273;22545;-87
2024/03/14 10:34:07;;;;;;;62.40;34.80;;;;;;;9.33;100.00;99168.41;272951;1273;22241;-87
2024/03/14 10:40:41;;;;;;;55.20;31.40;;;;;;;9.40;100.00;99170.58;272935;1274;22405;-87
2024/03/14 10:47:01;;;;;;;59.80;33.80;;;;;;;9.58;100.00;99167.61;272266;1275;22196;-87
2024/03/14 10:54:03;;;;;;;61.30;31.90;;;;;;;9.71;100.00;99171.20;272569;1273;22307;-87
2024/03/14 11:00:13;;;;;;;59.10;31.20;;;;;;;9.79;100.00;99170.70;273234;1273;23900;-87
2024/03/14 11:06:49;;;;;;;60.90;32.90;;;;;;;9.74;100.00;99167.51;273264;1272;22276;-87
2024/03/14 11:13:18;;;;;;;59.40;32.50;;;;;;;9.65;100.00;99166.63;270910;1272;23963;-87
2024/03/14 11:19:21;;;;;;;58.70;32.40;;;;;;;9.52;100.00;99164.54;270301;1271;25361;-87
2024/03/14 11:33:26;;;;;;;57.50;30.40;;;;;;;9.53;100.00;99160.73;273430;1272;22243;-88
2024/03/14 11:39:57;;;;;;;62.20;31.90;;;;;;;9.62;100.00;99155.11;273161;1273;22256;-86
2024/03/14 12:01:13;;;;;;;62.70;30.30;;;;;;;9.77;100.00;99143.98;272189;1272;22380;-88
2024/03/14 12:07:35;;;;;;;59.70;28.60;;;;;;;9.80;100.00;99139.31;272087;1273;22298;-88
2024/03/14 12:13:37;;;;;;;56.10;27.60;;;;;;;9.81;100.00;99128.70;270484;1272;23120;-87
2024/03/14 12:19:42;;;;;;;54.20;28.70;;;;;;;9.89;100.00;99127.21;271903;1272;22358;-88
2024/03/14 12:26:34;;;;;;;52.70;27.10;;;;;;;9.95;100.00;99123.09;273005;1277;22215;-88
2024/03/14 12:32:54;;;;;;;;;;;;;;;9.82;100.00;99121.85;273142;1272;22402;-88
2024/03/14 12:39:35;;;;;;;47.30;26.60;;;;;;;9.77;100.00;99119.21;272814;1272;22393;-88
2024/03/14 12:45:44;;;;;;;51.40;26.40;;;;;;;9.81;100.00;99114.27;272936;1272;22214;-88
2024/03/14 12:59:24;;;;;;;48.60;25.30;;;;;;;9.88;100.00;99109.84;271804;1272;22480;-88
2024/03/14 13:05:26;;;;;;;51.00;26.70;;;;;;;9.89;100.00;99110.95;271877;1273;22543;-89
2024/03/14 13:11:28;;;;;;;45.80;24.80;;;;;;;9.93;100.00;99107.27;270913;1272;23237;-87
2024/03/14 13:17:37;;;;;;;53.70;26.10;;;;;;;9.93;100.00;99105.23;272667;1272;22197;-88
2024/03/14 13:23:42;;;;;;;53.60;26.00;;;;;;;9.89;100.00;99104.70;272989;1272;23135;-88
2024/03/14 13:30:35;;;;;;;50.30;24.60;;;;;;;9.93;100.00;99100.55;272539;1272;22670;-87
2024/03/14 13:37:02;;;;;;;44.90;24.00;;;;;;;9.90;100.00;99101.99;272550;1274;22211;-88
2024/03/14 13:43:09;;;;;;;42.60;22.70;;;;;;;9.89;100.00;99096.65;273008;1278;22400;-87
2024/03/14 13:49:12;;;;;;;46.80;23.30;;;;;;;9.90;100.00;99093.79;269826;1271;23478;-88
2024/03/14 13:55:52;;;;;;;43.00;22.70;;;;;;;9.85;100.00;99093.86;272764;1274;22223;-88
2024/03/14 14:01:53;;;;;;;43.40;22.20;;;;;;;9.79;100.00;99097.20;265130;1272;10145116;-88
2024/03/14 14:07:59;;;;;;;40.80;21.50;;;;;;;9.62;100.00;99098.19;272436;1272;22651;-88
2024/03/14 14:14:11;;;;;;;41.20;20.80;;;;;;;9.41;100.00;99094.80;271962;1275;22961;-88
2024/03/14 14:20:29;;;;;;;41.40;20.10;;;;;;;9.30;100.00;99094.91;273244;1273;23372;-88
2024/03/14 14:26:31;;;;;;;36.70;19.50;;;;;;;9.29;100.00;99099.42;272844;1272;22534;-88
2024/03/14 14:32:33;;;;;;;41.00;21.10;;;;;;;9.30;100.00;99099.98;270307;1272;22549;-87
2024/03/14 14:38:36;;;;;;;40.60;21.30;;;;;;;9.30;100.00;99098.56;271564;1272;22576;-87
2024/03/14 14:44:55;;;;;;;37.00;19.00;;;;;;;9.21;100.00;99100.98;270652;1272;22563;-87
2024/03/14 14:50:57;;;;;;;34.20;19.50;;;;;;;9.19;100.00;99096.97;271581;1264;22372;-88
2024/03/14 14:57:04;;;;;;;39.50;19.00;;;;;;;9.15;100.00;99089.18;273067;1278;22189;-88
2024/03/14 15:03:22;;;;;;;;;;;;;;;9.13;100.00;99088.12;273337;1278;23851;-87
2024/03/14 15:09:27;;;;;;;37.20;19.60;;;;;;;9.06;100.00;99085.34;273167;1272;23187;-88
2024/03/14 15:15:38;;;;;;;41.50;20.70;;;;;;;8.95;100.00;99078.48;272162;1272;23774;-87
2024/03/14 15:21:47;;;;;;;38.50;20.40;;;;;;;8.83;100.00;99074.52;271940;1272;23072;-87
2024/03/14 15:35:33;;;;;;;45.00;21.80;;;;;;;8.62;100.00;99080.52;273382;1273;22713;-86
2024/03/14 15:41:42;;;;;;;42.60;20.30;;;;;;;8.53;100.00;99077.83;272842;1273;22582;-87
2024/03/14 15:48:34;;;;;;;42.40;21.50;;;;;;;8.50;100.00;99073.48;272618;1272;22170;-87
2024/03/14 15:54:44;;;;;;;39.80;18.70;;;;;;;8.47;100.00;99070.06;272146;1272;22185;-86
2024/03/14 16:00:48;;;;;;;45.50;22.30;;;;;;;8.43;100.00;99066.32;271175;1272;22196;-87
2024/03/14 16:07:42;;;;;;;40.70;20.40;;;;;;;8.40;100.00;99068.58;272201;1272;22311;-87
2024/03/14 16:13:47;;;;;;;40.70;20.70;;;;;;;8.36;100.00;99071.02;270450;1272;25285;-86
2024/03/14 16:20:28;;;;;;;37.70;19.30;;;;;;;8.35;100.00;99071.70;271008;1272;22252;-87
2024/03/14 16:26:56;;;;;;;46.70;25.20;;;;;;;8.27;100.00;99076.27;272984;1272;22199;-87
2024/03/14 16:32:59;;;;;;;;;;;;;;;8.15;100.00;99075.58;272659;1272;22886;-86
2024/03/14 16:39:51;;;;;;;34.10;17.50;;;;;;;8.03;100.00;99076.27;272896;1272;22201;-87
2024/03/14 16:46:15;;;;;;;29.50;17.90;;;;;;;7.91;100.00;99081.59;272579;1272;23532;-86
2024/03/14 16:52:17;;;;;;;40.00;21.20;;;;;;;7.81;100.00;99083.00;272760;1272;22205;-87
2024/03/14 16:58:21;;;;;;;50.40;25.20;;;;;;;7.72;100.00;99083.87;272336;1271;22167;-87
2024/03/14 17:04:29;;;;;;;48.80;24.70;;;;;;;7.64;100.00;99084.09;273111;1275;22260;-87
2024/03/14 17:10:31;;;;;;;36.90;21.20;;;;;;;7.58;100.00;99083.01;271925;1272;22403;-87
2024/03/14 17:16:46;;;;;;;38.20;21.30;;;;;;;7.51;100.00;99084.08;273140;1278;22601;-86
2024/03/14 17:22:58;;;;;;;41.90;22.40;;;;;;;7.46;100.00;99082.78;271600;1272;22270;-87
2024/03/14 17:29:26;;;;;;;48.50;26.10;;;;;;;7.41;100.00;99083.35;273217;1277;23392;-87
2024/03/14 17:35:53;;;;;;;45.80;24.40;;;;;;;7.35;100.00;99083.90;272649;1272;22220;-87
2024/03/14 17:42:05;;;;;;;43.40;25.30;;;;;;;7.28;100.00;99085.59;272713;1272;21986;-87
2024/03/14 17:48:08;;;;;;;43.10;24.80;;;;;;;7.20;100.00;99089.20;271420;1272;24204;-87
2024/03/14 17:54:11;;;;;;;43.30;25.20;;;;;;;7.14;100.00;99092.53;270716;1272;22552;-88
2024/03/14 18:01:09;;;;;;;53.20;27.30;;;;;;;7.07;100.00;99093.45;270809;1272;24356;-86
2024/03/14 18:07:37;;;;;;;59.80;30.00;;;;;;;6.98;100.00;99092.98;270608;1272;22527;-87
2024/03/14 18:13:39;;;;;;;55.50;31.20;;;;;;;6.90;100.00;99093.91;270603;1272;22450;-86
2024/03/14 18:19:53;;;;;;;47.60;26.30;;;;;;;6.84;100.00;99095.30;272491;1272;22267;-86
2024/03/14 18:27:09;;;;;;;54.80;28.90;;;;;;;6.77;100.00;99091.17;273166;1278;22256;-87
2024/03/14 18:33:36;;;;;;;56.30;28.10;;;;;;;6.70;100.00;99090.96;271192;1272;22336;-86
2024/03/14 18:39:38;;;;;;;;;;;;;;;6.64;100.00;99087.91;272697;1271;22558;-86
2024/03/14 18:45:44;;;;;;;55.30;30.00;;;;;;;6.56;100.00;99088.85;272470;1272;22531;-86
2024/03/14 18:51:49;;;;;;;47.10;29.00;;;;;;;6.47;100.00;99089.61;263834;1272;10001301;-87
2024/03/14 18:58:20;;;;;;;54.20;30.70;;;;;;;6.34;100.00;99089.78;272578;1272;22733;-87
2024/03/14 19:05:00;;;;;;;54.60;32.50;;;;;;;6.23;100.00;99096.05;272945;1272;22216;-86
2024/03/14 19:11:27;;;;;;;58.00;30.50;;;;;;;6.08;100.00;99095.61;273216;1272;22367;-87
2024/03/14 19:17:30;;;;;;;60.40;31.30;;;;;;;5.92;100.00;99091.40;271824;1272;22359;-87
2024/03/14 19:23:40;;;;;;;62.50;33.30;;;;;;;5.79;100.00;99089.39;270596;1272;23500;-88
2024/03/14 19:29:42;;;;;;;57.10;32.20;;;;;;;5.64;100.00;99083.96;270835;1272;22184;-87
2024/03/14 19:36:10;;;;;;;57.60;31.40;;;;;;;5.50;100.00;99083.03;272285;1272;23399;-87
2024/03/14 19:42:17;;;;;;;56.40;32.60;;;;;;;5.35;100.00;99083.48;270540;1272;22618;-87
2024/03/14 19:48:19;;;;;;;63.90;33.60;;;;;;;5.20;100.00;99086.60;270420;1271;23837;-87
2024/03/14 19:54:23;;;;;;;63.10;33.90;;;;;;;5.05;100.00;99090.14;270843;1272;22380;-87
2024/03/14 20:00:55;;;;;;;56.80;30.60;;;;;;;4.88;100.00;99085.07;271849;1272;22107;-86
2024/03/14 20:07:07;;;;;;;57.60;31.30;;;;;;;4.67;100.00;99079.35;272747;1272;22207;-88
2024/03/14 20:13:17;;;;;;;71.40;35.20;;;;;;;4.54;100.00;99074.02;271762;1268;22544;-87
2024/03/14 20:20:20;;;;;;;54.60;28.20;;;;;;;4.41;100.00;99071.45;271710;1272;22204;-86
2024/03/14 20:27:32;;;;;;;57.80;29.50;;;;;;;4.21;100.00;99067.83;273064;1278;22558;-87
2024/03/14 20:34:02;;;;;;;103.60;45.50;;;;;;;4.04;100.00;99061.02;273184;1272;22229;-87
2024/03/14 20:48:04;;;;;;;74.60;40.40;;;;;;;3.67;100.00;99054.02;272993;1274;23632;-86
2024/03/14 20:54:55;;;;;;;82.80;41.00;;;;;;;3.53;100.00;99054.15;272870;1274;22205;-86
2024/03/14 21:16:05;;;;;;;92.90;45.20;;;;;;;3.36;100.00;99053.32;272886;1274;22342;-87
2024/03/14 21:22:12;;;;;;;;;;;;;;;3.35;100.00;99045.34;271319;1272;26067;-87
2024/03/14 21:28:41;;;;;;;82.10;41.80;;;;;;;3.31;100.00;99045.52;272664;1272;23360;-86
2024/03/14 21:35:09;;;;;;;96.00;46.70;;;;;;;3.22;100.00;99049.38;272425;1274;22181;-87
2024/03/14 21:41:39;;;;;;;90.10;44.70;;;;;;;3.15;100.00;99050.80;273140;1278;22424;-86
2024/03/14 21:48:00;;;;;;;84.20;42.50;;;;;;;3.05;100.00;99054.48;272891;1273;22283;-87
2024/03/14 21:54:26;;;;;;;80.30;41.30;;;;;;;2.86;100.00;99058.29;270843;1272;22614;-86
2024/03/14 22:00:28;;;;;;;91.10;45.70;;;;;;;2.78;100.00;99064.45;269793;1272;22520;-87
2024/03/14 22:06:30;;;;;;;81.30;42.90;;;;;;;2.59;100.00;99062.52;269769;1272;22536;-86
2024/03/14 22:12:33;;;;;;;95.20;44.30;;;;;;;2.41;100.00;99063.69;269990;1272;22522;-86
2024/03/14 22:18:59;;;;;;;97.70;46.90;;;;;;;2.31;100.00;99062.14;270466;1272;22186;-85
2024/03/14 22:25:26;;;;;;;80.30;39.40;;;;;;;2.12;100.00;99058.05;272577;1272;22226;-87
2024/03/14 22:31:30;;;;;;;115.20;55.00;;;;;;;2.03;100.00;99056.05;273199;1279;22345;-87
2024/03/14 22:37:55;;;;;;;98.20;47.70;;;;;;;2.03;100.00;99051.77;273111;1273;22176;-87
2024/03/14 22:43:57;;;;;;;116.00;54.10;;;;;;;1.91;100.00;99050.84;272783;1273;22216;-86
2024/03/14 22:49:59;;;;;;;96.50;48.60;;;;;;;1.90;100.00;99044.58;271273;1272;22191;-87
2024/03/14 22:56:31;;;;;;;83.70;39.40;;;;;;;1.82;100.00;99042.80;271481;1272;22201;-86
2024/03/14 23:02:57;;;;;;;77.70;39.60;;;;;;;1.74;100.00;99046.28;271529;1272;22208;-85
2024/03/14 23:09:00;;;;;;;84.20;41.40;;;;;;;1.60;100.00;99042.01;269572;1272;22481;-86
2024/03/14 23:15:05;;;;;;;97.00;45.70;;;;;;;1.50;100.00;99048.59;269527;1272;22559;-85
2024/03/14 23:21:38;;;;;;;110.80;51.10;;;;;;;1.48;100.00;99042.33;269599;1272;22201;-86
2024/03/14 23:28:45;;;;;;;78.40;40.30;;;;;;;1.41;100.00;99041.04;269965;1272;22567;-86
2024/03/14 23:35:11;;;;;;;95.00;46.00;;;;;;;1.31;100.00;99044.13;273279;1268;22289;-86
2024/03/14 23:41:33;;;;;;;99.10;46.80;;;;;;;1.27;100.00;99038.52;273161;1275;22234;-86
2024/03/14 23:47:35;;;;;;;95.60;48.60;;;;;;;1.30;100.00;99042.09;271862;1262;25128;-86
2024/03/14 23:53:38;;;;;;;110.20;49.00;;;;;;;1.32;100.00;99040.70;271342;1272;22195;-86
